Time;durP1;ratioP1;P1;durP2;ratioP2;P2;SDS_P1;SDS_P2;PMS_P1;PMS_P2;Temp;Humidity;BMP_temperature;BMP_pressure;BME280_temperature;BME280_humidity;BME280_pressure;Samples;Min_cycle;Max_cycle;Signal;HPM_P1;HPM_P2
2023/01/21 00:01:45;;;;;;;;;;;4.40;99.90;;;;;;4888745;29;20041;-67
2023/01/21 00:04:10;;;;;;;;;;;4.40;99.90;;;;;;4898200;29;19910;-67
2023/01/21 00:06:36;;;;;;;;;;;4.40;99.90;;;;;;4902708;29;19915;-67
2023/01/21 00:09:02;;;;;;;;;;;4.40;99.90;;;;;;4898862;29;19922;-67
2023/01/21 00:11:28;;;;;;;;;;;4.40;99.90;;;;;;4896013;29;19919;-68
2023/01/21 00:13:53;;;;;;;;;;;4.40;99.90;;;;;;4897474;29;19927;-68
2023/01/21 00:16:19;;;;;;;;;;;4.40;99.90;;;;;;4894181;29;19918;-68
2023/01/21 00:18:46;;;;;;;;;;;4.40;99.90;;;;;;4898400;29;19923;-68
2023/01/21 00:21:12;;;;;;;;;;;4.40;99.90;;;;;;4903115;29;19917;-67
2023/01/21 00:23:37;;;;;;;;;;;4.40;99.90;;;;;;4901666;29;19914;-68
2023/01/21 00:26:04;;;;;;;;;;;4.40;99.90;;;;;;4902166;29;20318;-67
2023/01/21 00:28:30;;;;;;;;;;;4.30;99.90;;;;;;4899205;29;20380;-67
2023/01/21 00:31:00;;;;;;;;;;;4.20;99.90;;;;;;4896290;29;19927;-67
2023/01/21 00:33:26;;;;;;;;;;;4.10;99.90;;;;;;4898404;29;19927;-67
2023/01/21 00:36:05;;;;;;;;;;;4.10;99.90;;;;;;4897325;29;19921;-67
2023/01/21 00:38:31;;;;;;;;;;;4.10;99.90;;;;;;4899091;29;21323;-67
2023/01/21 00:40:59;;;;;;;;;;;4.20;99.90;;;;;;4899358;29;19989;-67
2023/01/21 00:43:25;;;;;;;;;;;4.20;99.90;;;;;;4894839;29;19926;-68
2023/01/21 00:45:50;;;;;;;;;;;4.20;99.90;;;;;;4893402;29;20293;-69
2023/01/21 00:48:16;;;;;;;;;;;4.30;99.90;;;;;;4896429;29;19957;-68
2023/01/21 00:50:41;;;;;;;;;;;4.20;99.90;;;;;;4901127;29;19915;-68
2023/01/21 00:53:07;;;;;;;;;;;4.30;99.90;;;;;;4895249;29;20403;-68
2023/01/21 00:55:33;;;;;;;;;;;4.30;99.90;;;;;;4894743;29;19965;-68
2023/01/21 00:57:58;;;;;;;;;;;4.30;99.90;;;;;;4903681;29;20003;-67
2023/01/21 01:00:24;;;;;;;;;;;4.20;99.90;;;;;;4903047;29;19915;-67
2023/01/21 01:02:49;;;;;;;;;;;4.20;99.90;;;;;;4898399;29;19921;-67
2023/01/21 01:05:15;;;;;;;;;;;4.20;99.90;;;;;;4899156;29;20443;-67
2023/01/21 01:07:42;;;;;;;;;;;4.30;99.90;;;;;;4895639;29;19911;-67
2023/01/21 01:10:08;;;;;;;;;;;4.40;99.90;;;;;;4899246;29;19915;-67
2023/01/21 01:12:34;;;;;;;;;;;4.40;99.90;;;;;;4906266;29;19959;-74
2023/01/21 01:15:00;;;;;;;;;;;4.40;99.90;;;;;;4895474;29;19919;-72
2023/01/21 01:17:25;;;;;;;;;;;4.30;99.90;;;;;;4899940;29;19977;-72
2023/01/21 01:19:50;;;;;;;;;;;4.30;99.90;;;;;;4903469;29;20397;-72
2023/01/21 01:22:16;;;;;;;;;;;4.30;99.90;;;;;;4901822;29;19926;-73
2023/01/21 01:24:41;;;;;;;;;;;4.20;99.90;;;;;;4895394;29;19918;-74
2023/01/21 01:27:07;;;;;;;;;;;4.20;99.90;;;;;;4898336;29;21990;-75
2023/01/21 01:29:32;;;;;;;;;;;4.20;99.90;;;;;;4900738;29;19911;-70
2023/01/21 01:31:58;;;;;;;;;;;4.10;99.90;;;;;;4904401;29;19908;-67
2023/01/21 01:34:23;;;;;;;;;;;4.00;99.90;;;;;;4902320;29;19942;-66
2023/01/21 01:36:49;;;;;;;;;;;4.00;99.90;;;;;;4902221;29;19911;-66
2023/01/21 01:39:14;;;;;;;;;;;4.00;99.90;;;;;;4893117;29;20006;-67
2023/01/21 01:41:40;;;;;;;;;;;3.90;99.90;;;;;;4894932;29;20439;-67
2023/01/21 01:44:25;;;;;;;;;;;4.00;99.90;;;;;;4895016;29;19921;-66
2023/01/21 01:46:52;;;;;;;;;;;3.90;99.90;;;;;;4896191;29;19926;-67
2023/01/21 01:49:19;;;;;;;;;;;3.80;99.90;;;;;;4897475;29;19919;-69
2023/01/21 01:51:46;;;;;;;;;;;3.80;99.90;;;;;;4897308;29;19919;-70
2023/01/21 01:54:13;;;;;;;;;;;3.70;99.90;;;;;;4897830;29;19923;-69
2023/01/21 01:56:42;;;;;;;;;;;3.70;99.90;;;;;;4886238;29;20027;-70
2023/01/21 01:59:07;;;;;;;;;;;3.70;99.90;;;;;;4893175;29;20037;-71
2023/01/21 02:01:33;;;;;;;;;;;3.70;99.90;;;;;;4891164;29;20381;-70
2023/01/21 02:03:59;;;;;;;;;;;3.80;99.90;;;;;;4893394;29;19911;-70
2023/01/21 02:06:26;;;;;;;;;;;3.80;99.90;;;;;;4893825;29;20333;-70
2023/01/21 02:08:51;;;;;;;;;;;3.90;99.90;;;;;;4887625;29;19911;-71
2023/01/21 02:11:18;;;;;;;;;;;3.90;99.90;;;;;;4897751;29;20476;-71
2023/01/21 02:13:46;;;;;;;;;;;3.90;99.90;;;;;;4890383;29;20269;-74
2023/01/21 02:16:12;;;;;;;;;;;3.90;99.90;;;;;;4896783;29;20653;-71
2023/01/21 02:19:07;;;;;;;;;;;3.90;99.90;;;;;;4894122;29;19998;-71
2023/01/21 02:21:47;;;;;;;;;;;3.90;99.90;;;;;;4872486;29;20071;-71
2023/01/21 02:24:24;;;;;;;;;;;4.00;99.90;;;;;;4886669;29;19910;-71
2023/01/21 02:26:56;;;;;;;;;;;4.00;99.90;;;;;;4898209;29;19919;-71
2023/01/21 02:29:24;;;;;;;;;;;3.90;99.90;;;;;;4895313;29;19926;-66
2023/01/21 02:32:01;;;;;;;;;;;3.90;99.90;;;;;;4894836;29;19950;-66
2023/01/21 02:34:32;;;;;;;;;;;3.90;99.90;;;;;;4889080;29;20308;-66
2023/01/21 02:37:00;;;;;;;;;;;3.90;99.90;;;;;;4897119;29;19919;-66
2023/01/21 02:39:45;;;;;;;;;;;3.90;99.90;;;;;;4891955;29;19919;-66
2023/01/21 02:42:10;;;;;;;;;;;3.90;99.90;;;;;;4890519;29;19914;-68
2023/01/21 02:44:41;;;;;;;;;;;3.90;99.90;;;;;;4894165;29;19961;-68
2023/01/21 02:47:14;;;;;;;;;;;3.90;99.90;;;;;;4897178;29;19919;-68
2023/01/21 02:49:44;;;;;;;;;;;3.90;99.90;;;;;;4889539;29;19919;-68
2023/01/21 02:52:19;;;;;;;;;;;3.90;99.90;;;;;;4898000;29;19925;-68
2023/01/21 02:54:47;;;;;;;;;;;3.90;99.90;;;;;;4898125;29;19915;-68
2023/01/21 02:57:15;;;;;;;;;;;3.90;99.90;;;;;;4899953;29;19911;-68
2023/01/21 02:59:43;;;;;;;;;;;3.90;99.90;;;;;;4905233;29;19977;-68
2023/01/21 03:02:08;;;;;;;;;;;3.90;99.90;;;;;;4893774;29;19911;-68
2023/01/21 03:04:51;;;;;;;;;;;3.90;99.90;;;;;;4897440;29;19911;-68
2023/01/21 03:07:30;;;;;;;;;;;3.90;99.90;;;;;;4900297;29;20408;-68
2023/01/21 03:09:59;;;;;;;;;;;3.90;99.90;;;;;;4896512;29;19954;-68
2023/01/21 03:12:29;;;;;;;;;;;4.00;99.90;;;;;;4898040;29;20091;-68
2023/01/21 03:17:51;;;;;;;;;;;4.00;99.90;;;;;;4898507;29;19926;-68
2023/01/21 03:20:17;;;;;;;;;;;4.00;99.90;;;;;;4899976;29;19951;-68
2023/01/21 03:22:43;;;;;;;;;;;4.00;99.90;;;;;;4912230;29;20029;-68
2023/01/21 03:25:10;;;;;;;;;;;4.10;99.90;;;;;;4897095;29;19915;-68
2023/01/21 03:27:38;;;;;;;;;;;4.20;99.90;;;;;;4897803;29;19915;-68
2023/01/21 03:30:14;;;;;;;;;;;4.20;99.90;;;;;;4900063;29;19954;-68
2023/01/21 03:32:42;;;;;;;;;;;4.20;99.90;;;;;;4896551;29;19920;-68
2023/01/21 03:35:08;;;;;;;;;;;4.10;99.90;;;;;;4897939;29;19979;-68
2023/01/21 03:37:40;;;;;;;;;;;4.20;99.90;;;;;;4899135;29;19937;-67
2023/01/21 03:40:20;;;;;;;;;;;4.10;99.90;;;;;;4888724;29;19948;-67
2023/01/21 03:42:49;;;;;;;;;;;4.10;99.90;;;;;;4908568;29;19911;-67
2023/01/21 03:45:15;;;;;;;;;;;4.10;99.90;;;;;;4897829;29;19922;-68
2023/01/21 03:47:43;;;;;;;;;;;4.20;99.90;;;;;;4900398;29;19911;-67
2023/01/21 03:50:12;;;;;;;;;;;4.20;99.90;;;;;;4898197;29;19915;-67
2023/01/21 03:52:42;;;;;;;;;;;4.20;99.90;;;;;;4897650;29;19934;-68
2023/01/21 03:55:08;;;;;;;;;;;4.20;99.90;;;;;;4900175;29;19921;-68
2023/01/21 03:57:34;;;;;;;;;;;4.20;99.90;;;;;;4896243;29;19951;-68
2023/01/21 03:59:59;;;;;;;;;;;4.20;99.90;;;;;;4901457;29;19938;-68
2023/01/21 04:02:25;;;;;;;;;;;4.10;99.90;;;;;;4896003;29;20394;-67
2023/01/21 04:04:52;;;;;;;;;;;4.00;99.90;;;;;;4897822;29;20014;-68
2023/01/21 04:07:17;;;;;;;;;;;4.00;99.90;;;;;;4892060;29;19915;-67
2023/01/21 04:09:43;;;;;;;;;;;4.00;99.90;;;;;;4899265;29;19970;-67
2023/01/21 04:12:09;;;;;;;;;;;4.00;99.90;;;;;;4894236;29;19979;-68
2023/01/21 04:14:34;;;;;;;;;;;4.00;99.90;;;;;;4893805;29;20364;-67
2023/01/21 04:17:00;;;;;;;;;;;4.00;99.90;;;;;;4890053;29;19922;-68
2023/01/21 04:19:25;;;;;;;;;;;4.00;99.90;;;;;;4896448;29;19919;-68
2023/01/21 04:21:51;;;;;;;;;;;4.10;99.90;;;;;;4898783;29;19921;-68
2023/01/21 04:24:16;;;;;;;;;;;4.00;99.90;;;;;;4893422;29;19918;-72
2023/01/21 04:26:42;;;;;;;;;;;4.10;99.90;;;;;;4897617;29;19911;-72
2023/01/21 04:29:07;;;;;;;;;;;4.20;99.90;;;;;;4896407;29;20651;-72
2023/01/21 04:31:33;;;;;;;;;;;4.20;99.90;;;;;;4895453;29;19971;-72
2023/01/21 04:33:58;;;;;;;;;;;4.30;99.90;;;;;;4898456;29;19927;-73
2023/01/21 04:36:24;;;;;;;;;;;4.30;99.90;;;;;;4899485;29;20697;-72
2023/01/21 04:38:49;;;;;;;;;;;4.30;99.90;;;;;;4899013;29;19950;-72
2023/01/21 04:41:15;;;;;;;;;;;4.20;99.90;;;;;;4897895;29;19915;-72
2023/01/21 04:43:40;;;;;;;;;;;4.10;99.90;;;;;;4894718;29;19918;-72
2023/01/21 04:46:06;;;;;;;;;;;4.10;99.90;;;;;;4902550;29;20319;-73
2023/01/21 04:48:32;;;;;;;;;;;4.00;99.90;;;;;;4894857;29;19911;-72
2023/01/21 04:50:57;;;;;;;;;;;3.90;99.90;;;;;;4896043;29;19981;-72
2023/01/21 04:53:23;;;;;;;;;;;3.80;99.90;;;;;;4896318;29;20362;-73
2023/01/21 04:55:52;;;;;;;;;;;3.70;99.90;;;;;;4895867;29;21029;-72
2023/01/21 04:58:18;;;;;;;;;;;3.70;99.90;;;;;;4897263;29;19967;-72
2023/01/21 05:00:43;;;;;;;;;;;3.60;99.90;;;;;;4891964;29;19922;-67
2023/01/21 05:03:09;;;;;;;;;;;3.50;99.90;;;;;;4898945;29;19911;-67
2023/01/21 05:05:34;;;;;;;;;;;3.40;99.90;;;;;;4901800;29;19911;-67
2023/01/21 05:08:00;;;;;;;;;;;3.40;99.90;;;;;;4903201;29;19911;-68
2023/01/21 05:10:25;;;;;;;;;;;3.40;99.90;;;;;;4905091;29;20773;-68
2023/01/21 05:12:51;;;;;;;;;;;3.40;99.90;;;;;;4900912;29;19923;-67
2023/01/21 05:15:16;;;;;;;;;;;3.50;99.90;;;;;;4896129;29;19911;-68
2023/01/21 05:17:42;;;;;;;;;;;3.60;99.90;;;;;;4899947;29;19923;-67
2023/01/21 05:20:08;;;;;;;;;;;3.70;99.90;;;;;;4901310;29;19919;-67
2023/01/21 05:22:33;;;;;;;;;;;3.50;99.90;;;;;;4900339;29;19915;-67
2023/01/21 05:24:59;;;;;;;;;;;3.40;99.90;;;;;;4895449;29;20332;-67
2023/01/21 05:27:25;;;;;;;;;;;3.40;99.90;;;;;;4897582;29;20898;-67
2023/01/21 05:29:51;;;;;;;;;;;3.20;99.90;;;;;;4899406;29;19926;-67
2023/01/21 05:32:17;;;;;;;;;;;3.20;99.90;;;;;;4900693;29;19918;-67
2023/01/21 05:34:43;;;;;;;;;;;3.30;99.90;;;;;;4902547;29;19911;-67
2023/01/21 05:37:08;;;;;;;;;;;3.30;99.90;;;;;;4903950;29;20010;-67
2023/01/21 05:39:34;;;;;;;;;;;3.30;99.90;;;;;;4900185;29;19911;-67
2023/01/21 05:41:59;;;;;;;;;;;3.30;99.90;;;;;;4901083;29;19919;-67
2023/01/21 05:44:25;;;;;;;;;;;3.30;99.90;;;;;;4895339;29;20296;-67
2023/01/21 05:46:50;;;;;;;;;;;3.40;99.90;;;;;;4895752;29;20898;-67
2023/01/21 05:49:16;;;;;;;;;;;3.40;99.90;;;;;;4901704;29;19918;-67
2023/01/21 05:51:42;;;;;;;;;;;3.50;99.90;;;;;;4888916;29;19915;-67
2023/01/21 05:54:07;;;;;;;;;;;3.60;99.90;;;;;;4897906;29;19923;-67
2023/01/21 05:56:33;;;;;;;;;;;3.60;99.90;;;;;;4905685;29;19930;-67
2023/01/21 05:58:58;;;;;;;;;;;3.60;99.90;;;;;;4893822;29;19915;-72
2023/01/21 06:01:24;;;;;;;;;;;3.60;99.90;;;;;;4901183;29;19915;-72
2023/01/21 06:03:49;;;;;;;;;;;3.60;99.90;;;;;;4896586;29;19914;-72
2023/01/21 06:06:15;;;;;;;;;;;3.70;99.90;;;;;;4896459;29;19912;-72
2023/01/21 06:08:40;;;;;;;;;;;3.70;99.90;;;;;;4900064;29;20009;-72
2023/01/21 06:11:06;;;;;;;;;;;3.70;99.90;;;;;;4897387;29;19966;-72
2023/01/21 06:13:31;;;;;;;;;;;3.70;99.90;;;;;;4896419;29;20049;-72
2023/01/21 06:15:57;;;;;;;;;;;3.80;99.90;;;;;;4897037;29;19958;-72
2023/01/21 06:18:23;;;;;;;;;;;3.90;99.90;;;;;;4899794;29;19915;-72
2023/01/21 06:20:48;;;;;;;;;;;3.90;99.90;;;;;;4900543;29;20101;-72
2023/01/21 06:23:14;;;;;;;;;;;4.00;99.90;;;;;;4901871;29;20287;-72
2023/01/21 06:25:42;;;;;;;;;;;4.00;99.90;;;;;;4905030;29;19910;-72
2023/01/21 06:28:09;;;;;;;;;;;4.10;99.90;;;;;;4899686;29;19918;-73
2023/01/21 06:30:35;;;;;;;;;;;4.10;99.90;;;;;;4898246;29;19915;-72
2023/01/21 06:33:00;;;;;;;;;;;4.10;99.90;;;;;;4902274;29;20533;-73
2023/01/21 06:35:26;;;;;;;;;;;4.10;99.90;;;;;;4898095;29;19922;-73
2023/01/21 06:37:51;;;;;;;;;;;4.00;99.90;;;;;;4893603;29;19953;-73
2023/01/21 06:40:17;;;;;;;;;;;4.00;99.90;;;;;;4892806;29;23096;-72
2023/01/21 06:42:46;;;;;;;;;;;3.90;99.90;;;;;;4893484;29;20130;-72
2023/01/21 06:45:11;;;;;;;;;;;3.90;99.90;;;;;;4899818;29;19918;-72
2023/01/21 06:47:38;;;;;;;;;;;3.80;99.90;;;;;;4898733;29;19915;-72
2023/01/21 06:50:04;;;;;;;;;;;3.90;99.90;;;;;;4892970;29;19930;-72
2023/01/21 06:52:30;;;;;;;;;;;3.90;99.90;;;;;;4901946;29;20310;-72
2023/01/21 06:54:55;;;;;;;;;;;3.80;99.90;;;;;;4895581;29;20017;-72
2023/01/21 06:57:21;;;;;;;;;;;3.80;99.90;;;;;;4896863;29;19922;-72
2023/01/21 06:59:46;;;;;;;;;;;3.90;99.90;;;;;;4897942;29;20702;-72
2023/01/21 07:02:12;;;;;;;;;;;3.90;99.90;;;;;;4897760;29;19919;-72
2023/01/21 07:04:37;;;;;;;;;;;3.90;99.90;;;;;;4896933;29;19915;-73
2023/01/21 07:07:03;;;;;;;;;;;3.90;99.90;;;;;;4902783;29;19940;-73
2023/01/21 07:09:28;;;;;;;;;;;3.90;99.90;;;;;;4897219;29;20472;-73
2023/01/21 07:11:54;;;;;;;;;;;3.90;99.90;;;;;;4896199;29;20427;-72
2023/01/21 07:14:20;;;;;;;;;;;3.90;99.90;;;;;;4895460;29;19920;-67
2023/01/21 07:16:45;;;;;;;;;;;3.90;99.90;;;;;;4898263;29;19926;-73
2023/01/21 07:19:11;;;;;;;;;;;3.90;99.90;;;;;;4896963;29;19915;-73
2023/01/21 07:21:36;;;;;;;;;;;3.90;99.90;;;;;;4901567;29;20062;-73
2023/01/21 07:24:02;;;;;;;;;;;3.90;99.90;;;;;;4903793;29;19911;-72
2023/01/21 07:26:27;;;;;;;;;;;4.00;99.90;;;;;;4900561;29;20292;-73
2023/01/21 07:28:53;;;;;;;;;;;3.90;99.90;;;;;;4900279;29;20376;-73
2023/01/21 07:31:18;;;;;;;;;;;4.00;99.90;;;;;;4895191;29;20005;-73
2023/01/21 07:33:44;;;;;;;;;;;4.00;99.90;;;;;;4899432;29;19927;-74
2023/01/21 07:36:09;;;;;;;;;;;4.00;99.90;;;;;;4904142;29;19911;-73
2023/01/21 07:38:35;;;;;;;;;;;4.00;99.90;;;;;;4902339;29;20017;-73
2023/01/21 07:41:00;;;;;;;;;;;4.10;99.90;;;;;;4893675;29;20272;-73
2023/01/21 07:43:29;;;;;;;;;;;4.20;99.90;;;;;;4898382;29;19915;-73
2023/01/21 07:45:55;;;;;;;;;;;4.20;99.90;;;;;;4902175;29;19918;-73
2023/01/21 07:48:20;;;;;;;;;;;4.20;99.90;;;;;;4902527;29;20830;-74
2023/01/21 07:50:46;;;;;;;;;;;4.20;99.90;;;;;;4900989;29;19911;-75
2023/01/21 07:53:12;;;;;;;;;;;4.20;99.90;;;;;;4902348;29;24301;-74
2023/01/21 07:55:37;;;;;;;;;;;4.20;99.90;;;;;;4899529;29;19927;-75
2023/01/21 07:58:02;;;;;;;;;;;4.20;99.90;;;;;;4896592;29;20512;-74
2023/01/21 08:00:28;;;;;;;;;;;4.20;99.90;;;;;;4901291;29;19915;-74
2023/01/21 08:02:54;;;;;;;;;;;4.20;99.90;;;;;;4894288;29;19907;-74
2023/01/21 08:05:20;;;;;;;;;;;4.30;99.90;;;;;;4890567;29;19914;-73
2023/01/21 08:07:46;;;;;;;;;;;4.40;99.90;;;;;;4896851;29;19919;-74
2023/01/21 08:10:11;;;;;;;;;;;4.50;99.90;;;;;;4901457;29;19922;-74
2023/01/21 08:12:39;;;;;;;;;;;4.50;99.90;;;;;;4897447;29;20515;-75
2023/01/21 08:15:05;;;;;;;;;;;4.40;99.90;;;;;;4893890;29;20183;-76
2023/01/21 08:17:30;;;;;;;;;;;4.40;99.90;;;;;;4900630;29;19915;-75
2023/01/21 08:19:56;;;;;;;;;;;4.40;99.90;;;;;;4895531;29;19986;-74
2023/01/21 08:22:22;;;;;;;;;;;4.40;99.90;;;;;;4892404;29;20381;-74
2023/01/21 08:24:47;;;;;;;;;;;4.40;99.90;;;;;;4897882;29;19954;-75
2023/01/21 08:27:13;;;;;;;;;;;4.60;99.90;;;;;;4898147;29;19923;-74
2023/01/21 08:29:38;;;;;;;;;;;4.60;99.90;;;;;;4899358;29;19966;-71
2023/01/21 08:32:04;;;;;;;;;;;4.50;99.90;;;;;;4901594;29;19919;-69
2023/01/21 08:34:29;;;;;;;;;;;4.40;99.90;;;;;;4896792;29;19926;-69
2023/01/21 08:36:55;;;;;;;;;;;4.40;99.90;;;;;;4889567;29;19926;-69
2023/01/21 08:39:21;;;;;;;;;;;4.40;99.90;;;;;;4900863;29;19919;-70
2023/01/21 08:41:46;;;;;;;;;;;4.40;99.90;;;;;;4897454;29;19925;-70
2023/01/21 08:44:12;;;;;;;;;;;4.50;99.90;;;;;;4900958;29;19907;-70
2023/01/21 08:46:37;;;;;;;;;;;4.40;99.90;;;;;;4902702;29;20599;-70
2023/01/21 08:49:04;;;;;;;;;;;4.50;99.90;;;;;;4897245;29;19911;-70
2023/01/21 08:51:29;;;;;;;;;;;4.50;99.90;;;;;;4897092;29;20014;-70
2023/01/21 08:53:54;;;;;;;;;;;4.50;99.90;;;;;;4899936;29;19923;-70
2023/01/21 08:56:20;;;;;;;;;;;4.50;99.90;;;;;;4899034;29;19919;-70
2023/01/21 08:58:45;;;;;;;;;;;4.40;99.90;;;;;;4895124;29;19930;-70
2023/01/21 09:01:14;;;;;;;;;;;4.40;99.90;;;;;;4903209;29;19914;-69
2023/01/21 09:03:39;;;;;;;;;;;4.40;99.90;;;;;;4902109;29;19911;-70
2023/01/21 09:06:06;;;;;;;;;;;4.50;99.90;;;;;;4903013;29;20392;-70
2023/01/21 09:08:31;;;;;;;;;;;4.50;99.90;;;;;;4902461;29;19919;-68
2023/01/21 09:11:00;;;;;;;;;;;4.50;99.90;;;;;;4907679;29;19915;-68
2023/01/21 09:13:30;;;;;;;;;;;4.60;99.90;;;;;;4896327;29;19949;-68
2023/01/21 09:15:55;;;;;;;;;;;4.60;99.90;;;;;;4897506;29;20183;-68
2023/01/21 09:18:21;;;;;;;;;;;4.50;99.90;;;;;;4900810;29;20439;-69
2023/01/21 09:20:46;;;;;;;;;;;4.60;99.90;;;;;;4901772;29;20447;-69
2023/01/21 09:23:25;;;;;;;;;;;4.50;99.90;;;;;;4896810;29;19922;-69
2023/01/21 09:25:51;;;;;;;;;;;4.50;99.90;;;;;;4904109;29;19922;-70
2023/01/21 09:28:17;;;;;;;;;;;4.40;99.90;;;;;;4892860;29;19975;-70
2023/01/21 09:30:42;;;;;;;;;;;4.50;99.90;;;;;;4899601;29;19918;-70
2023/01/21 09:33:08;;;;;;;;;;;4.40;99.90;;;;;;4900338;29;19922;-70
2023/01/21 09:35:33;;;;;;;;;;;4.50;99.90;;;;;;4898259;29;19926;-71
2023/01/21 09:37:59;;;;;;;;;;;4.50;99.90;;;;;;4888727;29;19922;-69
2023/01/21 09:40:24;;;;;;;;;;;4.50;99.90;;;;;;4885173;29;20151;-69
2023/01/21 09:42:50;;;;;;;;;;;4.60;99.90;;;;;;4893611;29;19917;-69
2023/01/21 09:45:17;;;;;;;;;;;4.60;99.90;;;;;;4881627;29;19911;-69
2023/01/21 09:47:44;;;;;;;;;;;4.60;99.90;;;;;;4898126;29;20041;-69
2023/01/21 09:50:13;;;;;;;;;;;4.60;99.90;;;;;;4899761;29;19911;-70
2023/01/21 09:52:39;;;;;;;;;;;4.60;99.90;;;;;;4895491;29;19927;-69
2023/01/21 09:55:11;;;;;;;;;;;4.50;99.90;;;;;;4898113;29;19931;-72
2023/01/21 09:57:47;;;;;;;;;;;4.50;99.90;;;;;;4885538;29;19973;-72
2023/01/21 10:00:24;;;;;;;;;;;4.60;99.90;;;;;;4900773;29;19907;-71
2023/01/21 10:02:59;;;;;;;;;;;4.70;99.90;;;;;;4895733;29;19920;-71
2023/01/21 10:05:50;;;;;;;;;;;4.70;99.90;;;;;;4889488;29;20397;-70
2023/01/21 10:08:15;;;;;;;;;;;4.70;99.90;;;;;;4893024;29;19915;-70
2023/01/21 10:10:46;;;;;;;;;;;4.70;99.90;;;;;;4898126;29;20395;-70
2023/01/21 10:13:27;;;;;;;;;;;4.70;99.90;;;;;;4891471;29;19923;-78
2023/01/21 10:16:04;;;;;;;;;;;4.70;99.90;;;;;;4890216;29;19911;-76
2023/01/21 10:18:31;;;;;;;;;;;4.90;99.90;;;;;;4901960;29;20398;-67
2023/01/21 10:21:03;;;;;;;;;;;4.90;99.90;;;;;;4895749;29;19958;-67
2023/01/21 10:23:38;;;;;;;;;;;5.00;99.90;;;;;;4896170;29;19919;-69
2023/01/21 10:26:07;;;;;;;;;;;4.90;99.90;;;;;;4891648;29;20260;-68
2023/01/21 10:28:33;;;;;;;;;;;4.90;99.90;;;;;;4897722;29;19919;-71
2023/01/21 10:31:06;;;;;;;;;;;4.90;99.90;;;;;;4883040;29;19969;-69
2023/01/21 10:33:32;;;;;;;;;;;4.90;99.90;;;;;;4876878;29;20400;-71
2023/01/21 10:36:16;;;;;;;;;;;4.90;99.90;;;;;;4880932;29;19919;-69
2023/01/21 10:38:47;;;;;;;;;;;4.90;99.90;;;;;;4888820;29;19919;-80
2023/01/21 10:41:31;;;;;;;;;;;4.90;99.90;;;;;;4883127;29;20335;-76
2023/01/21 10:44:15;;;;;;;;;;;4.90;99.90;;;;;;4885414;29;19915;-76
2023/01/21 10:46:53;;;;;;;;;;;5.00;99.90;;;;;;4896570;29;23949;-76
2023/01/21 10:49:28;;;;;;;;;;;5.00;99.90;;;;;;4873867;29;20337;-75
2023/01/21 10:52:03;;;;;;;;;;;5.00;99.90;;;;;;4876413;29;19970;-75
2023/01/21 10:54:48;;;;;;;;;;;5.00;99.90;;;;;;4883671;29;19996;-75
2023/01/21 10:57:14;;;;;;;;;;;5.00;99.90;;;;;;4880183;29;20348;-75
2023/01/21 10:59:40;;;;;;;;;;;5.10;99.90;;;;;;4894087;29;20144;-74
2023/01/21 11:02:12;;;;;;;;;;;5.00;99.90;;;;;;4898575;29;19945;-73
2023/01/21 11:04:39;;;;;;;;;;;5.00;99.90;;;;;;4899960;29;19919;-71
2023/01/21 11:07:07;;;;;;;;;;;5.00;99.90;;;;;;4899490;29;19918;-71
2023/01/21 11:09:44;;;;;;;;;;;5.00;99.90;;;;;;4885301;29;20013;-69
2023/01/21 11:12:10;;;;;;;;;;;5.00;99.90;;;;;;4898872;29;19926;-69
2023/01/21 11:14:36;;;;;;;;;;;5.10;99.90;;;;;;4896577;29;20021;-69
2023/01/21 11:17:02;;;;;;;;;;;5.10;99.90;;;;;;4898430;29;19917;-69
2023/01/21 11:19:31;;;;;;;;;;;5.10;99.90;;;;;;4895189;29;20291;-69
2023/01/21 11:22:15;;;;;;;;;;;5.10;99.90;;;;;;4896047;29;19923;-71
2023/01/21 11:24:44;;;;;;;;;;;5.10;99.90;;;;;;4895590;29;19915;-71
2023/01/21 11:27:28;;;;;;;;;;;5.10;99.90;;;;;;4897947;29;19919;-73
2023/01/21 11:29:54;;;;;;;;;;;5.00;99.90;;;;;;4915053;28;20448;-70
2023/01/21 11:32:20;;;;;;;;;;;5.10;99.90;;;;;;4894641;29;19919;-72
2023/01/21 11:34:47;;;;;;;;;;;5.10;99.90;;;;;;4890147;29;19927;-74
2023/01/21 11:37:27;;;;;;;5.65;4.88;;;5.10;99.90;;;;;;4890277;29;20372;-72
2023/01/21 11:39:56;;;;;;;9.30;5.75;;;5.20;99.90;;;;;;4886909;29;20028;-72
2023/01/21 11:42:22;;;;;;;9.20;5.80;;;5.20;99.90;;;;;;4876049;29;20115;-66
2023/01/21 11:44:54;;;;;;;6.43;5.05;;;5.20;99.90;;;;;;4888586;29;20143;-68
2023/01/21 11:47:55;;;;;;;7.93;5.40;;;5.20;99.90;;;;;;4886897;29;20032;-67
2023/01/21 11:50:33;;;;;;;5.95;4.80;;;5.20;99.90;;;;;;4825440;29;20054;-67
2023/01/21 11:53:16;;;;;;;5.30;4.80;;;5.30;99.90;;;;;;4885677;29;20608;-68
2023/01/21 11:55:47;;;;;;;7.35;5.25;;;5.30;99.90;;;;;;4889206;29;20052;-66
2023/01/21 11:58:34;;;;;;;5.80;4.87;;;5.40;99.90;;;;;;4908302;29;20047;-70
2023/01/21 12:01:04;;;;;;;9.48;5.97;;;5.30;99.90;;;;;;4892920;29;20386;-68
2023/01/21 12:03:34;;;;;;;12.48;8.93;;;5.30;99.90;;;;;;4892208;29;24329;-69
2023/01/21 12:06:01;;;;;;;15.88;8.43;;;5.20;99.90;;;;;;4891688;29;20115;-69
2023/01/21 12:08:32;;;;;;;12.43;10.20;;;5.20;99.90;;;;;;4895464;29;20034;-69
2023/01/21 12:11:03;;;;;;;9.65;8.02;;;5.10;99.90;;;;;;4896145;29;20036;-69
2023/01/21 12:13:49;;;;;;;9.50;7.43;;;5.10;99.90;;;;;;4903533;29;20029;-68
2023/01/21 12:16:26;;;;;;;13.32;10.15;;;5.00;99.90;;;;;;4898095;29;20079;-68
2023/01/21 12:19:23;;;;;;;9.98;7.72;;;5.00;99.90;;;;;;4896057;29;20028;-69
2023/01/21 12:22:07;;;;;;;8.15;5.38;;;5.00;99.90;;;;;;4891761;29;20040;-70
2023/01/21 12:24:52;;;;;;;5.40;4.15;;;5.10;99.90;;;;;;4897279;29;20031;-70
2023/01/21 12:27:46;;;;;;;5.40;4.88;;;5.00;99.90;;;;;;4896277;29;20032;-70
2023/01/21 12:30:29;;;;;;;5.55;4.68;;;5.00;99.90;;;;;;4897065;29;20039;-70
2023/01/21 12:33:00;;;;;;;8.80;6.50;;;5.10;99.90;;;;;;4898478;29;20515;-69
2023/01/21 12:35:32;;;;;;;18.10;8.90;;;5.10;99.90;;;;;;4897685;29;20036;-70
2023/01/21 12:38:05;;;;;;;9.02;6.85;;;5.10;99.90;;;;;;4903929;29;21789;-69
2023/01/21 12:40:58;;;;;;;7.82;5.53;;;5.10;99.90;;;;;;4887955;29;20071;-70
2023/01/21 12:43:39;;;;;;;8.68;6.15;;;5.20;99.90;;;;;;4890222;29;20048;-70
2023/01/21 12:46:26;;;;;;;7.33;6.40;;;5.10;99.90;;;;;;4921335;28;20745;-71
2023/01/21 12:49:01;;;;;;;14.82;6.57;;;5.20;99.90;;;;;;4889913;29;20043;-73
2023/01/21 12:51:41;;;;;;;28.13;10.70;;;5.20;99.90;;;;;;4880678;29;20115;-72
2023/01/21 12:54:35;;;;;;;33.28;13.77;;;5.20;99.90;;;;;;4886013;29;20185;-74
2023/01/21 12:57:05;;;;;;;10.60;6.55;;;5.20;99.90;;;;;;4887160;29;20111;-72
2023/01/21 12:59:55;;;;;;;38.63;17.60;;;5.20;99.90;;;;;;4883326;29;20040;-71
2023/01/21 13:02:39;;;;;;;27.55;13.98;;;5.10;99.90;;;;;;4888384;29;20032;-73
2023/01/21 13:05:28;;;;;;;36.25;14.48;;;5.10;99.90;;;;;;4885430;29;20123;-75
2023/01/21 13:08:24;;;;;;;13.18;8.10;;;5.10;99.90;;;;;;4889130;29;20119;-80
2023/01/21 13:10:56;;;;;;;33.65;13.32;;;5.00;99.90;;;;;;4887681;29;20060;-72
2023/01/21 13:13:34;;;;;;;24.48;12.00;;;5.00;99.90;;;;;;4888359;29;20963;-73
2023/01/21 13:16:05;;;;;;;17.42;7.88;;;5.00;99.90;;;;;;4882150;29;20062;-73
2023/01/21 13:18:37;;;;;;;28.05;14.05;;;5.10;99.90;;;;;;4892284;29;20466;-74
2023/01/21 13:21:38;;;;;;;45.13;19.38;;;5.10;99.90;;;;;;4881841;29;20071;-74
2023/01/21 13:24:14;;;;;;;22.17;9.90;;;5.20;99.90;;;;;;4896267;29;20193;-73
2023/01/21 13:26:55;;;;;;;12.55;7.10;;;5.20;99.90;;;;;;4883972;29;20036;-72
2023/01/21 13:29:36;;;;;;;77.60;30.97;;;5.20;99.90;;;;;;4882404;29;20036;-72
2023/01/21 13:32:33;;;;;;;22.40;11.00;;;5.10;99.90;;;;;;4889340;29;20637;-71
2023/01/21 13:35:17;;;;;;;53.67;19.42;;;5.10;99.90;;;;;;4884957;29;20614;-70
2023/01/21 13:38:04;;;;;;;54.80;20.17;;;5.00;99.90;;;;;;4890306;29;20051;-69
2023/01/21 13:40:39;;;;;;;32.75;13.98;;;5.00;99.90;;;;;;4891488;29;20028;-69
2023/01/21 13:43:33;;;;;;;77.10;29.75;;;4.90;99.90;;;;;;4887115;29;20193;-67
2023/01/21 13:46:09;;;;;;;28.80;12.30;;;4.80;99.90;;;;;;4890329;29;20370;-67
2023/01/21 13:49:04;;;;;;;9.43;6.47;;;4.90;99.90;;;;;;4888751;29;20334;-68
2023/01/21 13:52:02;;;;;;;47.67;17.48;;;4.90;99.90;;;;;;4886322;29;20434;-69
2023/01/21 13:54:51;;;;;;;22.15;10.00;;;4.90;99.90;;;;;;4860425;29;20531;-72
2023/01/21 13:57:34;;;;;;;28.88;10.77;;;4.90;99.90;;;;;;4887032;29;20055;-72
2023/01/21 14:00:13;;;;;;;17.33;7.65;;;4.90;99.90;;;;;;4890614;29;21210;-72
2023/01/21 14:02:49;;;;;;;36.70;11.95;;;5.00;99.90;;;;;;4878483;29;20038;-74
2023/01/21 14:05:21;;;;;;;16.77;8.45;;;5.00;99.90;;;;;;4882360;29;20047;-73
2023/01/21 14:07:52;;;;;;;12.82;7.82;;;5.00;99.90;;;;;;4888221;29;20032;-71
2023/01/21 14:10:39;;;;;;;44.63;17.98;;;5.00;99.90;;;;;;4888809;29;20168;-71
2023/01/21 14:13:07;;;;;;;30.08;13.52;;;5.10;99.90;;;;;;4883612;29;20024;-70
2023/01/21 14:16:04;;;;;;;14.07;9.48;;;5.10;99.90;;;;;;4888589;29;20040;-72
2023/01/21 14:18:39;;;;;;;18.27;9.52;;;5.00;99.90;;;;;;4889981;29;20032;-72
2023/01/21 14:21:22;;;;;;;53.28;19.80;;;5.00;99.90;;;;;;4879145;29;20059;-70
2023/01/21 14:24:14;;;;;;;59.03;18.08;;;5.10;99.90;;;;;;4889374;29;20046;-72
2023/01/21 14:26:47;;;;;;;75.63;23.35;;;5.10;99.90;;;;;;4889036;29;20039;-72
2023/01/21 14:29:22;;;;;;;127.60;69.57;;;5.00;99.90;;;;;;4888601;29;20529;-73